Portada
METAR-TAF:

METAR-TAF

Aeropuertos :

Red Oak Municipal Airport

Red Oak, Iowa, Estados Unidos

latitud: 41-01N, longitud: 095-16W, altitud: 318 m

Observación

El informe se hizo hace 23 minutos, a las 21:55 UTC
Viento 9 kt del norte
Temperatura 26°C
Humedad 51%
Presión 1022 hPa
Visibilidad: 14.5 km
Escasas nubes a una altura de 6000 ft

METAR: KRDK 012155Z AUTO 36009KT 9SM FEW060 26/15 A3017 RMK AO2

Hora: 17:18 (22:18 UTC)


TAF: falta

Observaciones y pronósticos meteorológicos de más de 4000 aeropuertos (mensajes METAR y TAF).

Los puntos amarillos y rojos representan las estaciones disponibles.

Ponga el ratón en el punto deseado para ver el nombre de la estación.

Haga clic para ver las observaciones y los pronósticos meteorológicos.

Para cambiar el mapa : haga clic en los botones verdes con una cruz de color negro para hacer un zoom, en el botón verde con un guión para alejar o en las flechas verdes para mapas adyacentes.


METAR-TAF: